Fort Lauderdale, FL (33359)

12:54 PM EDT on September 02, 2014 (GMT -0400)
Hill Observatory | Change Station
CLOSE
Current Station
Personal Weather Station
Location: Lauderhill, FL
Elevation: 10 ft
Nearby Weather Stations

Elev 10 ft 26.19 °N, 80.26 °W | Updated 1 minute ago

Scattered Clouds
Scattered Clouds
89.9 °F
Feels Like 96 °F
N
0.0
Wind Variable Wind from SE
Gusts 0.0 mph

Today
High -- | Low -- °F
--% Chance of Precip.
Yesterday
High -- | Low -- °F
Precip. -- in
7:01 AM 7:39 PM
First Quarter, 53% visible
Pressure 30.07 in
Visibility 10.0 miles
Clouds Scattered Clouds 3500 ft
Scattered Clouds 8000 ft
Heat Index 96 °F
Dew Point 71 °F
Humidity 54%
Rainfall 0.00 in
Snow Depth Not available.
UV 10 out of 12
Pollen 4.20 out of 12
Air Quality Not available.
Flu Activity Not available.
METAR KFXE 021553Z 12011KT 070V150 10SM SCT035 SCT080 32/23 A3006 RMK AO2 SLP183 T03220233

More Conditions Fewer Conditions

Pressure 30.07 in
Visibility 10.0 miles
Clouds Scattered Clouds 3500 ft
Scattered Clouds 8000 ft
Heat Index 96 °F
Dew Point 71 °F
Humidity 54%
Rainfall 0.00 in
Snow Depth Not available.
UV 10 out of 12
Pollen 4.20 out of 12
Air Quality Not available.
Flu Activity Not available.
METAR KFXE 021553Z 12011KT 070V150 10SM SCT035 SCT080 32/23 A3006 RMK AO2 SLP183 T03220233

More Conditions Fewer Conditions

Nowcast | as of 11:31 am EDT on September 2, 2014

Widely dispersed showers will continue to move westward across the Atlantic waters. These showers will produce brief downpours and gusty winds to near 25 knots. Showers will also affect the Atlantic coast Metro areas from time to time.

×

10-Day Weather Forecast

Almanac

Astronomy

Sep. 02, 2014 Rise Set
Actual Time 7:01 AM EDT 7:39 PM EDT
Civil Twilight 6:37 AM EDT 8:02 PM EDT
Nautical Twilight 6:10 AM EDT 8:30 PM EDT
Astronomical Twilight 5:42 AM EDT 8:58 PM EDT
Moon 2:03 PM EDT 12:19 AM EDT
Length of Visible Light 13h 24m
Length of Day
12h 38m
Tomorrow will be 1m 28s shorter.
First Quarter, 53% of the Moon is Illuminated
Today
First Quarter
Sep 8
Full
Sep 15
Last Quarter
Sep 24
New
Oct 1
First Quarter

Today's Extremes

State Highs State Lows

Community

WunderPhotos

Upload Photos

1,749,716 photos uploaded!

WunderBlogs® & News

Nearby

Air Quality

  Air Quality AQ Index Pollutant
Yesterday Good
OZONE
Tuesday Good
OZONE
Tuesday Good
PM2.5

Snow Depth

Station Depth Elevation
No new snow has been reported.

Earthquake Activity

City Distance Mag. Time & Date
No recent earthquake activity has been reported nearby.
Minimum magnitude displayed is 2.5.

Coastal Water Temperatures

Place Temperature
Virginia Key, FL 87.1 °F

Nearby Weather Stations